createdAt,value
2023-05-22T00:04:32.978Z,15.6
2023-05-22T00:10:52.924Z,15.6
2023-05-22T00:17:15.989Z,13.1
2023-05-22T00:23:35.939Z,13.1
2023-05-22T00:29:58.929Z,14.5
2023-05-22T00:36:18.942Z,14.5
2023-05-22T00:42:42.023Z,10.2
2023-05-22T00:49:01.904Z,10.2
2023-05-22T00:55:24.985Z,13.4
2023-05-22T01:01:44.961Z,13.4
2023-05-22T01:08:07.947Z,11.2
2023-05-22T01:14:27.955Z,11.2
2023-05-22T01:20:51.017Z,13.4
2023-05-22T01:27:10.910Z,13.4
2023-05-22T01:33:34.161Z,41.4
2023-05-22T01:39:53.930Z,41.4
2023-05-22T01:46:17.021Z,17.6
2023-05-22T01:52:36.996Z,17.6
2023-05-22T01:58:59.964Z,13.9
2023-05-22T02:05:19.925Z,13.9
2023-05-22T02:11:42.970Z,13
2023-05-22T02:18:02.916Z,13
2023-05-22T02:24:26.021Z,6.6
2023-05-22T02:30:45.948Z,6.6
2023-05-22T02:37:08.952Z,11.1
2023-05-22T02:43:28.972Z,11.1
2023-05-22T02:49:51.978Z,10.5
2023-05-22T02:56:11.969Z,10.5
2023-05-22T03:02:35.063Z,11.5
2023-05-22T03:08:54.977Z,11.5
2023-05-22T03:15:17.941Z,9.1
2023-05-22T03:21:37.893Z,9.1
2023-05-22T03:28:01.091Z,12.1
2023-05-22T03:34:20.998Z,12.1
2023-05-22T03:51:36.445Z,8
2023-05-22T03:57:56.124Z,8
2023-05-22T04:04:19.012Z,10.8
2023-05-22T04:10:39.233Z,10.8
2023-05-22T04:17:01.895Z,11.1
2023-05-22T04:23:22.027Z,11.1
2023-05-22T04:29:44.945Z,7.8
2023-05-22T04:36:04.963Z,7.8
2023-05-22T04:42:27.917Z,11.9
2023-05-22T04:48:47.920Z,11.9
2023-05-22T04:55:10.970Z,12.6
2023-05-22T05:01:33.010Z,12.6
2023-05-22T05:07:54.010Z,12.1
2023-05-22T05:14:13.906Z,12.1
2023-05-22T05:20:37.037Z,9.2
2023-05-22T05:26:57.025Z,9.2
2023-05-22T05:33:19.967Z,16.4
2023-05-22T05:39:39.913Z,16.4
2023-05-22T05:46:03.072Z,17.9
2023-05-22T05:52:22.963Z,17.9
2023-05-22T05:58:45.999Z,26.9
2023-05-22T06:05:05.952Z,26.9
2023-05-22T06:11:28.982Z,33.3
2023-05-22T06:17:49.025Z,33.3
2023-05-22T06:24:11.982Z,23
2023-05-22T06:30:39.885Z,23
2023-05-22T06:36:54.919Z,18.9
2023-05-22T06:43:14.970Z,18.9
2023-05-22T06:49:37.954Z,26.6
2023-05-22T06:55:57.981Z,26.6
2023-05-22T07:02:21.161Z,64.4
2023-05-22T07:08:40.928Z,64.4
2023-05-22T07:15:03.963Z,28.7
2023-05-22T07:21:24.034Z,28.7
2023-05-22T07:27:46.965Z,38.7
2023-05-22T07:34:06.962Z,38.7
2023-05-22T07:48:16.579Z,55.3
2023-05-22T07:54:35.934Z,55.3
2023-05-22T08:00:58.917Z,35
2023-05-22T08:07:19.077Z,35
2023-05-22T08:13:41.955Z,53.7
2023-05-22T08:20:02.068Z,53.7
2023-05-22T08:26:24.952Z,62.1
2023-05-22T08:32:44.928Z,62.1
2023-05-22T08:39:08.001Z,32.8
2023-05-22T08:45:28.004Z,32.8
2023-05-22T08:51:50.963Z,29.6
2023-05-22T08:58:10.999Z,29.6
2023-05-22T09:04:34.085Z,32.3
2023-05-22T09:28:16.875Z,38.8
2023-05-22T09:34:36.921Z,38.8
2023-05-22T09:40:59.931Z,34.6
2023-05-22T09:47:19.967Z,34.6
2023-05-22T09:53:42.953Z,27.9
2023-05-22T10:00:03.050Z,27.9
2023-05-22T10:06:26.061Z,28.5
2023-05-22T10:12:45.940Z,28.5
2023-05-22T10:19:08.906Z,42
2023-05-22T10:25:29.056Z,42
2023-05-22T10:31:51.988Z,31.1
2023-05-22T10:38:11.890Z,31.1
2023-05-22T10:44:35.101Z,33.1
2023-05-22T10:50:54.899Z,33.1
2023-05-22T10:57:18.130Z,37
2023-05-22T11:03:38.067Z,37
2023-05-22T11:10:00.898Z,29.9
2023-05-22T11:16:20.947Z,29.9
2023-05-22T11:22:44.032Z,30
2023-05-22T11:29:03.923Z,30
2023-05-22T11:35:26.931Z,21.3
2023-05-22T11:41:47.036Z,21.3
2023-05-22T11:48:09.959Z,26.8
2023-05-22T11:54:29.908Z,26.8
2023-05-22T12:00:53.060Z,26.6
2023-05-22T12:07:12.932Z,26.6
2023-05-22T12:13:35.891Z,26.6
2023-05-22T12:19:56.079Z,26.6
2023-05-22T12:26:18.903Z,26.3
2023-05-22T12:32:38.930Z,26.3
2023-05-22T12:39:02.084Z,20.8
2023-05-22T12:45:21.910Z,20.8
2023-05-22T12:51:44.964Z,21.1
2023-05-22T12:58:05.031Z,21.1
2023-05-22T13:04:27.930Z,31.3
2023-05-22T13:10:47.935Z,31.3
2023-05-22T13:17:11.007Z,24
2023-05-22T13:23:30.938Z,24
2023-05-22T13:29:53.905Z,31
2023-05-22T13:36:14.048Z,31
2023-05-22T13:42:36.945Z,66.8
2023-05-22T13:48:56.892Z,66.8
2023-05-22T13:55:20.065Z,31.1
2023-05-22T14:01:40.437Z,31.1
2023-05-22T14:08:03.158Z,20.3
2023-05-22T14:14:23.321Z,20.3
2023-05-22T14:20:45.924Z,25.3
2023-05-22T14:27:05.927Z,25.3
2023-05-22T14:33:29.025Z,26.6
2023-05-22T14:39:48.902Z,26.6
2023-05-22T14:46:11.937Z,19.1
2023-05-22T14:52:32.009Z,19.1
2023-05-22T14:58:54.931Z,11.3
2023-05-22T15:22:20.281Z,26.1
2023-05-22T15:28:39.893Z,26.1
2023-05-22T15:35:02.899Z,25.5
2023-05-22T15:41:23.056Z,25.5
2023-05-22T15:47:46.120Z,31.1
2023-05-22T15:54:06.235Z,31.1
2023-05-22T16:00:29.016Z,44.4
2023-05-22T16:06:48.929Z,44.4
2023-05-22T16:13:11.925Z,24.1
2023-05-22T16:19:32.094Z,24.1
2023-05-22T16:25:54.951Z,53.7
2023-05-22T16:32:14.908Z,53.7
2023-05-22T16:38:38.073Z,30.8
2023-05-22T16:44:57.901Z,30.8
2023-05-22T16:51:20.984Z,26.6
2023-05-22T16:57:41.056Z,26.6
2023-05-22T17:04:04.006Z,48.5
2023-05-22T17:10:24.058Z,48.5
2023-05-22T17:16:47.206Z,46.5
2023-05-22T17:23:06.905Z,46.5
2023-05-22T17:29:29.994Z,48.9
2023-05-22T17:35:50.084Z,48.9
2023-05-22T17:42:12.954Z,37.5
2023-05-22T17:48:32.976Z,37.5
2023-05-22T17:54:56.123Z,64.2
2023-05-22T18:01:16.010Z,64.2
2023-05-22T18:07:38.997Z,47.8
2023-05-22T18:13:59.122Z,47.8
2023-05-22T18:20:21.926Z,26.3
2023-05-22T18:26:41.957Z,26.3
2023-05-22T18:33:05.095Z,36.8
2023-05-22T18:39:24.891Z,36.8
2023-05-22T18:45:48.010Z,69.4
2023-05-22T18:52:08.066Z,69.4
2023-05-22T18:58:30.998Z,39.3
2023-05-22T19:04:51.029Z,39.3
2023-05-22T19:11:14.073Z,40.8
2023-05-22T19:17:34.018Z,40.8
2023-05-22T19:23:56.955Z,44.9
2023-05-22T19:30:17.038Z,44.9
2023-05-22T19:36:39.984Z,17.4
2023-05-22T19:42:59.899Z,17.4
2023-05-22T19:49:22.998Z,16.7
2023-05-22T19:55:42.931Z,16.7
2023-05-22T20:02:05.949Z,9.8
2023-05-22T20:08:26.092Z,9.8
2023-05-22T20:14:48.949Z,13.5
2023-05-22T20:21:08.880Z,13.5
2023-05-22T20:27:32.076Z,8.5
2023-05-22T20:50:39.783Z,11.9
2023-05-22T20:56:57.949Z,11.9
2023-05-22T21:03:21.283Z,10.8
2023-05-22T21:09:41.061Z,10.8
2023-05-22T21:16:03.889Z,7
2023-05-22T21:22:23.881Z,7
2023-05-22T21:28:47.077Z,7
2023-05-22T21:35:06.879Z,7
2023-05-22T21:41:29.974Z,7.7
2023-05-22T21:47:50.054Z,7.7
2023-05-22T21:54:12.875Z,9.4
2023-05-22T22:00:32.979Z,9.4
2023-05-22T22:23:30.991Z,21.4
2023-05-22T22:29:50.932Z,21.4
2023-05-22T22:36:13.888Z,21.4
2023-05-22T22:42:34.069Z,21.4
2023-05-22T22:48:56.917Z,7.8
2023-05-22T22:55:16.968Z,7.8
2023-05-22T23:01:40.077Z,10.7
2023-05-22T23:07:59.961Z,10.7
2023-05-22T23:14:22.882Z,26.5
2023-05-22T23:20:43.058Z,26.5
2023-05-22T23:27:05.926Z,6.1
2023-05-22T23:33:25.937Z,6.1
2023-05-22T23:39:49.097Z,4.3
2023-05-22T23:46:09.025Z,4.3
2023-05-22T23:52:31.937Z,7.2
2023-05-22T23:58:52.063Z,7.2
